Welcome!

Visit our other weather sites:

Template documentation
and downloads

And another site



There are no active watches, warnings or advisories

Select another period ( hide this area )

Units Period Custom range Directly to
Metric English Both
Daily Weekly Monthly Yearly
use both date-selectors for a custom range
previous Day
With this date

WeatherUnderground graphs for this period ( click here )


Daily Summary for Monday Jun 24 2019
Time Temp. ( °C ) Dew pt. ( °C ) Wind ( km/h ) from Gust ( km/h ) Pressure ( hPa ) Humid.( % ) Rainrate ( cm )
High26,8 14,2 33,3 West ( 811/2443 ) 24,3 1009,4 92 -
Average17,3 10,9 19,3 West #67/204 14,6 1009,0 71 -
Low10,9 9,1 4,8   3,2 1007,0 35 -
Daily Tabular details for Monday Jun 24 2019
Time Temp. ( °C ) Dew pt. ( °C ) Wind ( km/h ) from Gust ( km/h ) Pressure ( hPa ) Humid.( % ) Rainrate ( cm )
00:04 13,1 11,3 22,2 WNW 16,9 1009,0 89 -
00:09 13,1 11,3 24,1 WNW 18,0 1009,0 89 -
00:14 13,1 11,3 20,9 WNW 16,7 1009,0 89 -
00:19 13,0 11,2 22,2 WNW 18,2 1009,0 89 -
00:24 13,0 11,2 22,2 WNW 15,1 1009,0 89 -
00:29 12,9 11,2 22,2 WNW 17,2 1009,0 89 -
00:34 12,9 11,1 18,5 WNW 15,6 1009,0 89 -
00:39 12,9 11,1 18,5 WNW 15,6 1009,0 89 -
00:44 12,8 11,1 18,5 WNW 12,9 1009,0 89 -
00:49 12,8 11,0 18,5 WNW 14,8 1009,0 89 -
00:54 12,8 11,0 19,3 WNW 15,8 1009,4 89 -
00:59 12,8 11,0 16,7 WNW 13,4 1009,4 89 -
01:04 12,8 11,0 18,5 WNW 15,4 1009,0 89 -
01:09 12,8 10,9 18,5 WNW 14,8 1009,0 88 -
01:14 12,8 10,9 19,3 WNW 15,1 1009,0 88 -
01:19 12,8 10,8 16,7 WNW 15,9 1009,0 88 -
01:24 12,7 10,9 18,5 WNW 12,9 1009,0 89 -
01:29 12,6 10,8 14,8 WNW 12,1 1009,0 89 -
01:34 12,5 10,7 16,7 WNW 13,2 1009,0 89 -
01:39 12,5 10,7 18,5 WNW 15,3 1009,0 89 -
01:44 12,6 10,8 20,4 WNW 15,3 1009,0 89 -
01:49 12,6 10,8 18,5 WNW 12,4 1009,0 89 -
01:54 12,4 10,6 16,7 WNW 12,9 1009,0 89 -
01:59 12,3 10,5 13,0 WNW 13,0 1009,0 89 -
02:04 12,2 10,4 13,0 WNW 10,9 1009,0 89 -
02:09 12,1 10,5 14,8 WNW 11,3 1009,0 90 -
02:14 12,1 10,4 11,3 WNW 10,0 1009,0 90 -
02:19 12,0 10,4 16,7 WNW 10,6 1009,0 90 -
02:24 12,0 10,4 11,3 WNW 10,8 1009,0 90 -
02:29 12,0 10,4 13,0 WNW 10,8 1009,0 90 -
02:34 12,1 10,4 13,0 WNW 11,6 1009,0 90 -
02:39 12,0 10,4 11,3 WNW 9,5 1009,0 90 -
02:44 11,9 10,3 9,7 WNW 8,4 1009,0 90 -
02:49 11,8 10,2 11,3 WNW 9,2 1008,7 90 -
02:54 11,8 10,3 11,1 WNW 9,0 1008,7 91 -
02:59 11,8 10,3 13,0 WNW 9,5 1008,7 91 -
03:04 11,7 10,2 7,4 WNW 7,2 1008,7 91 -
03:09 11,6 10,1 9,7 WNW 8,0 1008,7 91 -
03:14 11,6 10,1 11,3 WNW 10,1 1008,7 91 -
03:19 11,6 10,1 9,7 WNW 8,5 1008,4 91 -
03:24 11,5 10,1 11,1 WNW 7,6 1008,4 91 -
03:29 11,4 9,9 9,7 WNW 8,0 1008,4 91 -
03:34 11,3 9,9 13,0 WNW 10,6 1008,4 91 -
03:39 11,3 9,9 13,0 WNW 12,7 1008,4 91 -
03:44 11,2 9,8 14,8 WNW 9,0 1008,4 91 -
03:49 11,2 9,8 9,7 WNW 8,7 1008,4 91 -
03:54 11,2 9,8 13,0 WNW 10,9 1008,4 91 -
03:59 11,2 9,8 11,1 WNW 9,0 1008,4 91 -
04:04 11,2 9,8 6,4 WNW 5,1 1008,4 91 -
04:09 11,1 9,7 4,8 WNW 3,2 1008,4 91 -
04:14 11,0 9,6 6,4 WNW 5,3 1008,7 91 -
04:19 10,9 9,6 9,3 WNW 7,7 1008,7 91 -
04:24 11,0 9,7 11,1 WNW 6,4 1008,4 92 -
04:29 11,0 9,7 11,1 WNW 9,5 1008,4 92 -
04:34 10,9 9,7 13,0 WNW 10,1 1008,4 92 -
04:39 10,9 9,7 14,8 WNW 12,9 1008,4 92 -
04:44 11,1 9,8 16,7 WNW 14,2 1008,0 92 -
04:49 11,2 9,9 16,7 WNW 14,3 1008,4 92 -
04:54 11,2 9,9 16,7 WNW 14,8 1008,4 92 -
04:59 11,2 9,9 16,7 West 13,4 1008,7 92 -
05:04 11,2 9,8 16,7 West 13,2 1008,7 91 -
05:09 11,1 9,7 16,7 West 12,2 1008,7 91 -
05:14 11,1 9,7 13,0 West 10,8 1008,7 91 -
05:19 11,1 9,7 14,5 WNW 11,4 1008,7 91 -
05:24 11,1 9,7 14,8 WNW 12,9 1008,4 91 -
05:29 11,1 9,7 17,7 WNW 13,8 1008,7 91 -
05:34 11,1 9,7 14,8 West 11,7 1008,4 91 -
05:39 11,2 9,8 17,7 West 15,0 1008,7 91 -
05:44 11,3 10,0 16,7 West 13,5 1008,7 92 -
05:49 11,4 9,9 17,7 West 15,6 1008,7 91 -
05:54 11,5 10,1 20,4 West 16,7 1008,7 91 -
05:59 11,6 10,1 18,5 West 13,0 1008,7 91 -
06:04 11,6 10,2 14,8 WNW 12,7 1008,7 91 -
06:09 11,6 10,2 14,8 West 12,4 1008,7 91 -
06:14 11,7 10,2 14,8 West 12,9 1008,7 91 -
06:19 11,6 10,2 16,7 West 13,8 1008,7 91 -
06:24 11,6 10,2 18,5 West 12,7 1008,7 91 -
06:29 11,7 10,2 14,8 West 11,7 1008,7 91 -
06:34 11,7 10,2 16,7 West 13,4 1009,0 91 -
06:39 11,7 10,2 16,7 West 12,1 1009,0 91 -
06:44 11,7 10,2 14,8 West 10,5 1009,0 91 -
06:49 11,7 10,2 16,7 West 12,6 1009,0 91 -
06:54 11,7 10,3 13,0 West 10,5 1009,0 91 -
06:59 11,8 10,3 13,0 West 11,1 1009,0 91 -
07:04 11,8 10,4 13,0 West 10,9 1009,0 91 -
07:09 11,9 10,3 14,8 West 9,5 1009,0 90 -
07:14 12,1 10,5 13,0 WSW 9,7 1009,0 90 -
07:19 12,2 10,6 14,5 West 11,9 1009,0 90 -
07:24 12,3 10,7 16,1 WSW 11,9 1009,0 90 -
07:29 12,6 10,8 16,7 WNW 10,0 1009,0 89 -
07:34 12,8 11,0 14,8 West 11,1 1009,0 89 -
07:39 12,9 11,1 18,5 West 10,5 1009,0 89 -
07:44 13,1 11,2 16,7 WSW 11,9 1008,7 88 -
07:49 13,3 11,3 19,3 West 14,6 1008,7 88 -
07:54 13,4 11,3 18,5 West 14,2 1009,0 87 -
07:59 13,6 11,3 18,5 WSW 16,9 1009,0 86 -
08:04 13,8 11,7 22,2 West 13,2 1009,0 87 -
08:09 14,0 11,5 18,5 West 13,0 1009,0 85 -
08:14 14,3 11,8 16,7 West 13,0 1009,0 85 -
08:19 14,6 11,8 18,5 West 12,9 1009,0 83 -
08:24 14,8 11,7 18,5 West 15,8 1009,0 82 -
08:29 14,9 12,1 13,0 WSW 11,1 1009,0 83 -
08:34 15,2 11,9 20,4 West 15,6 1009,0 81 -
08:39 15,5 12,1 16,1 West 14,2 1009,0 80 -
08:44 15,6 12,0 22,2 West 17,1 1009,0 79 -
08:49 15,8 12,2 18,5 West 16,1 1009,0 79 -
08:54 16,1 12,6 22,5 West 17,1 1009,0 80 -
08:59 16,2 12,4 20,4 WSW 15,0 1009,4 78 -
09:04 16,6 12,5 20,9 WSW 17,1 1009,4 77 -
09:09 16,7 12,8 16,7 West 13,2 1009,4 78 -
09:14 16,9 12,7 18,5 West 13,7 1009,4 76 -
09:19 17,1 12,6 18,5 West 17,1 1009,4 75 -
09:24 17,4 12,9 19,3 West 17,5 1009,4 75 -
09:29 17,5 12,6 24,1 West 16,3 1009,4 73 -
09:34 17,7 13,0 20,4 West 11,1 1009,4 74 -
09:39 18,2 13,1 24,1 WSW 17,4 1009,4 72 -
09:44 18,3 12,9 25,9 West 20,6 1009,4 71 -
09:49 18,5 13,2 20,4 WSW 15,3 1009,4 71 -
09:54 18,6 13,2 19,3 West 16,1 1009,4 71 -
09:59 18,8 13,4 18,5 West 16,6 1009,4 71 -
10:04 19,2 13,8 18,5 West 11,4 1009,4 71 -
10:09 19,3 13,3 25,9 West 21,9 1009,4 68 -
10:14 19,6 13,1 27,8 West 21,4 1009,4 66 -
10:19 19,8 14,2 18,5 West 13,4 1009,4 70 -
10:24 20,1 13,9 25,9 West 18,3 1009,4 68 -
10:29 20,1 13,3 27,8 WSW 21,4 1009,4 65 -
10:34 20,2 13,2 27,8 WSW 21,1 1009,4 64 -
10:39 20,4 13,4 25,9 WSW 19,5 1009,4 64 -
10:44 20,6 13,8 20,4 WNW 15,6 1009,4 65 -
10:49 20,7 13,2 18,5 West 15,3 1009,4 62 -
10:54 20,9 12,9 25,9 WSW 18,5 1009,4 60 -
10:59 21,0 12,4 29,6 West 20,0 1009,4 58 -
11:04 21,0 12,4 24,1 West 19,3 1009,4 58 -
11:09 21,1 12,3 27,8 West 20,9 1009,0 57 -
11:14 21,3 11,9 18,5 WSW 15,4 1009,4 55 -
11:19 21,4 12,3 24,1 West 14,6 1009,4 56 -
11:24 21,5 12,1 18,5 West 12,6 1009,0 55 -
11:29 21,9 12,2 20,9 West 20,1 1009,4 54 -
11:34 21,9 11,3 33,3 SW 21,2 1009,0 51 -
11:39 22,1 11,5 27,8 West 20,9 1009,0 51 -
11:44 22,2 11,2 29,6 WSW 15,9 1009,0 50 -
11:49 22,3 11,7 22,2 SW 16,3 1009,0 51 -
11:54 22,5 11,6 27,4 WSW 12,7 1009,0 50 -
11:59 22,6 11,7 29,0 WSW 17,9 1009,0 50 -
12:04 22,8 10,9 27,4 WSW 18,2 1009,0 47 -
12:09 22,8 11,9 22,2 West 14,0 1009,0 50 -
12:14 22,7 11,1 29,6 WSW 18,2 1009,0 48 -
12:19 22,9 11,6 25,7 SW 14,0 1009,0 49 -
12:24 23,2 11,6 29,0 West 21,1 1009,0 48 -
12:29 23,1 10,8 29,6 West 22,9 1009,0 46 -
12:34 23,1 11,1 29,6 SW 22,7 1009,0 47 -
12:39 23,1 10,5 29,6 SW 22,7 1009,0 45 -
12:44 22,9 11,3 20,4 WSW 12,9 1009,0 48 -
12:49 23,2 10,9 27,8 West 18,3 1009,0 46 -
12:54 23,3 11,1 29,6 WSW 19,8 1009,0 46 -
12:59 23,2 11,3 22,5 WSW 17,4 1008,7 47 -
13:04 23,4 11,8 25,9 SW 18,3 1008,7 48 -
13:09 23,3 12,0 22,2 SW 12,2 1008,7 49 -
13:14 23,8 12,1 18,5 SW 15,9 1008,7 48 -
13:19 23,6 11,9 25,9 SW 15,6 1008,7 48 -
13:24 23,8 10,8 25,7 West 22,0 1008,7 44 -
13:29 24,1 11,4 27,4 WSW 19,3 1008,7 45 -
13:34 24,2 11,5 17,7 WSW 14,3 1008,7 45 -
13:39 24,2 10,1 19,3 West 18,5 1008,4 41 -
13:44 24,3 11,3 14,8 WSW 12,6 1008,4 44 -
13:49 24,5 10,7 20,4 WSW 14,6 1008,4 42 -
13:54 24,4 10,7 25,9 SSW 20,4 1008,4 42 -
13:59 24,3 10,2 27,4 WSW 24,1 1008,4 41 -
14:04 24,5 10,0 20,4 SW 17,5 1008,0 40 -
14:09 24,7 10,2 25,9 WSW 23,5 1008,0 40 -
14:14 24,7 10,9 22,2 WSW 14,2 1008,0 42 -
14:19 24,7 9,1 25,9 WSW 18,7 1008,0 37 -
14:24 24,9 10,1 16,7 SW 16,1 1008,0 39 -
14:29 25,2 11,7 16,7 SW 6,9 1008,0 43 -
14:34 25,1 10,6 18,5 South 12,4 1008,0 40 -
14:39 25,1 9,7 18,5 SW 15,1 1008,0 38 -
14:44 25,4 10,1 18,5 WSW 11,6 1008,0 38 -
14:49 25,4 9,7 22,2 SSW 15,1 1008,0 37 -
14:54 25,5 10,5 22,2 SSW 19,5 1008,0 39 -
14:59 25,7 11,1 14,8 West 9,0 1008,0 40 -
15:04 26,0 9,3 14,8 SW 12,6 1008,0 35 -
15:09 25,9 10,6 24,1 SW 17,9 1007,7 38 -
15:14 25,6 10,6 18,5 SSW 15,0 1007,7 39 -
15:19 25,7 9,9 25,9 SSW 17,5 1007,7 37 -
15:24 25,7 9,5 24,1 SW 20,8 1007,7 36 -
15:29 25,7 10,7 31,5 South 17,5 1008,0 39 -
15:34 25,7 10,7 22,2 WSW 13,8 1007,7 39 -
15:39 25,8 10,0 31,5 SSW 24,3 1007,7 37 -
15:44 25,7 9,9 27,4 SSW 21,4 1007,7 37 -
15:49 25,7 9,9 20,4 SW 15,8 1007,7 37 -
15:54 25,9 9,7 18,5 WSW 12,6 1007,7 36 -
15:59 25,9 10,1 29,6 SW 19,5 1007,7 37 -
16:04 26,1 11,0 16,7 SW 14,5 1007,7 39 -
16:09 26,2 11,1 25,9 SSW 22,4 1007,7 39 -
16:14 26,2 9,5 18,5 SSW 11,4 1007,3 35 -
16:19 26,3 10,0 25,9 SW 20,1 1007,3 36 -
16:24 26,3 10,9 22,2 SSW 18,0 1007,3 38 -
16:29 26,4 9,7 18,5 SW 15,0 1007,3 35 -
16:34 26,4 9,7 25,9 SSW 18,7 1007,3 35 -
16:39 26,4 10,2 22,2 SSW 14,6 1007,3 36 -
16:44 26,7 11,2 27,8 SW 15,4 1007,3 38 -
16:49 26,7 10,3 20,4 SW 16,4 1007,3 36 -
16:54 26,7 10,3 25,9 SSW 20,8 1007,0 36 -
16:59 26,8 10,4 24,1 SSW 17,4 1007,0 36 -
Daily Summary for Monday Jun 24 2019
Time Temp. ( °C ) Dew pt. ( °C ) Wind ( km/h ) from Gust ( km/h ) Pressure ( hPa ) Humid.( % ) Rainrate ( cm )
High26,8 14,2 33,3 West ( 811/2443 ) 24,3 1009,4 92 -
Average17,3 10,9 19,3 West #67/204 14,6 1009,0 71 -
Low10,9 9,1 4,8   3,2 1007,0 35 -
Daily Tabular details for Monday Jun 24 2019
Time Temp. ( °C ) Dew pt. ( °C ) Wind ( km/h ) from Gust ( km/h ) Pressure ( hPa ) Humid.( % ) Rainrate ( cm )
00:04 13,1 11,3 22,2 WNW 16,9 1009,0 89 -
00:09 13,1 11,3 24,1 WNW 18,0 1009,0 89 -
00:14 13,1 11,3 20,9 WNW 16,7 1009,0 89 -
00:19 13,0 11,2 22,2 WNW 18,2 1009,0 89 -
00:24 13,0 11,2 22,2 WNW 15,1 1009,0 89 -
00:29 12,9 11,2 22,2 WNW 17,2 1009,0 89 -
00:34 12,9 11,1 18,5 WNW 15,6 1009,0 89 -
00:39 12,9 11,1 18,5 WNW 15,6 1009,0 89 -
00:44 12,8 11,1 18,5 WNW 12,9 1009,0 89 -
00:49 12,8 11,0 18,5 WNW 14,8 1009,0 89 -
00:54 12,8 11,0 19,3 WNW 15,8 1009,4 89 -
00:59 12,8 11,0 16,7 WNW 13,4 1009,4 89 -
01:04 12,8 11,0 18,5 WNW 15,4 1009,0 89 -
01:09 12,8 10,9 18,5 WNW 14,8 1009,0 88 -
01:14 12,8 10,9 19,3 WNW 15,1 1009,0 88 -
01:19 12,8 10,8 16,7 WNW 15,9 1009,0 88 -
01:24 12,7 10,9 18,5 WNW 12,9 1009,0 89 -
01:29 12,6 10,8 14,8 WNW 12,1 1009,0 89 -
01:34 12,5 10,7 16,7 WNW 13,2 1009,0 89 -
01:39 12,5 10,7 18,5 WNW 15,3 1009,0 89 -
01:44 12,6 10,8 20,4 WNW 15,3 1009,0 89 -
01:49 12,6 10,8 18,5 WNW 12,4 1009,0 89 -
01:54 12,4 10,6 16,7 WNW 12,9 1009,0 89 -
01:59 12,3 10,5 13,0 WNW 13,0 1009,0 89 -
02:04 12,2 10,4 13,0 WNW 10,9 1009,0 89 -
02:09 12,1 10,5 14,8 WNW 11,3 1009,0 90 -
02:14 12,1 10,4 11,3 WNW 10,0 1009,0 90 -
02:19 12,0 10,4 16,7 WNW 10,6 1009,0 90 -
02:24 12,0 10,4 11,3 WNW 10,8 1009,0 90 -
02:29 12,0 10,4 13,0 WNW 10,8 1009,0 90 -
02:34 12,1 10,4 13,0 WNW 11,6 1009,0 90 -
02:39 12,0 10,4 11,3 WNW 9,5 1009,0 90 -
02:44 11,9 10,3 9,7 WNW 8,4 1009,0 90 -
02:49 11,8 10,2 11,3 WNW 9,2 1008,7 90 -
02:54 11,8 10,3 11,1 WNW 9,0 1008,7 91 -
02:59 11,8 10,3 13,0 WNW 9,5 1008,7 91 -
03:04 11,7 10,2 7,4 WNW 7,2 1008,7 91 -
03:09 11,6 10,1 9,7 WNW 8,0 1008,7 91 -
03:14 11,6 10,1 11,3 WNW 10,1 1008,7 91 -
03:19 11,6 10,1 9,7 WNW 8,5 1008,4 91 -
03:24 11,5 10,1 11,1 WNW 7,6 1008,4 91 -
03:29 11,4 9,9 9,7 WNW 8,0 1008,4 91 -
03:34 11,3 9,9 13,0 WNW 10,6 1008,4 91 -
03:39 11,3 9,9 13,0 WNW 12,7 1008,4 91 -
03:44 11,2 9,8 14,8 WNW 9,0 1008,4 91 -
03:49 11,2 9,8 9,7 WNW 8,7 1008,4 91 -
03:54 11,2 9,8 13,0 WNW 10,9 1008,4 91 -
03:59 11,2 9,8 11,1 WNW 9,0 1008,4 91 -
04:04 11,2 9,8 6,4 WNW 5,1 1008,4 91 -
04:09 11,1 9,7 4,8 WNW 3,2 1008,4 91 -
04:14 11,0 9,6 6,4 WNW 5,3 1008,7 91 -
04:19 10,9 9,6 9,3 WNW 7,7 1008,7 91 -
04:24 11,0 9,7 11,1 WNW 6,4 1008,4 92 -
04:29 11,0 9,7 11,1 WNW 9,5 1008,4 92 -
04:34 10,9 9,7 13,0 WNW 10,1 1008,4 92 -
04:39 10,9 9,7 14,8 WNW 12,9 1008,4 92 -
04:44 11,1 9,8 16,7 WNW 14,2 1008,0 92 -
04:49 11,2 9,9 16,7 WNW 14,3 1008,4 92 -
04:54 11,2 9,9 16,7 WNW 14,8 1008,4 92 -
04:59 11,2 9,9 16,7 West 13,4 1008,7 92 -
05:04 11,2 9,8 16,7 West 13,2 1008,7 91 -
05:09 11,1 9,7 16,7 West 12,2 1008,7 91 -
05:14 11,1 9,7 13,0 West 10,8 1008,7 91 -
05:19 11,1 9,7 14,5 WNW 11,4 1008,7 91 -
05:24 11,1 9,7 14,8 WNW 12,9 1008,4 91 -
05:29 11,1 9,7 17,7 WNW 13,8 1008,7 91 -
05:34 11,1 9,7 14,8 West 11,7 1008,4 91 -
05:39 11,2 9,8 17,7 West 15,0 1008,7 91 -
05:44 11,3 10,0 16,7 West 13,5 1008,7 92 -
05:49 11,4 9,9 17,7 West 15,6 1008,7 91 -
05:54 11,5 10,1 20,4 West 16,7 1008,7 91 -
05:59 11,6 10,1 18,5 West 13,0 1008,7 91 -
06:04 11,6 10,2 14,8 WNW 12,7 1008,7 91 -
06:09 11,6 10,2 14,8 West 12,4 1008,7 91 -
06:14 11,7 10,2 14,8 West 12,9 1008,7 91 -
06:19 11,6 10,2 16,7 West 13,8 1008,7 91 -
06:24 11,6 10,2 18,5 West 12,7 1008,7 91 -
06:29 11,7 10,2 14,8 West 11,7 1008,7 91 -
06:34 11,7 10,2 16,7 West 13,4 1009,0 91 -
06:39 11,7 10,2 16,7 West 12,1 1009,0 91 -
06:44 11,7 10,2 14,8 West 10,5 1009,0 91 -
06:49 11,7 10,2 16,7 West 12,6 1009,0 91 -
06:54 11,7 10,3 13,0 West 10,5 1009,0 91 -
06:59 11,8 10,3 13,0 West 11,1 1009,0 91 -
07:04 11,8 10,4 13,0 West 10,9 1009,0 91 -
07:09 11,9 10,3 14,8 West 9,5 1009,0 90 -
07:14 12,1 10,5 13,0 WSW 9,7 1009,0 90 -
07:19 12,2 10,6 14,5 West 11,9 1009,0 90 -
07:24 12,3 10,7 16,1 WSW 11,9 1009,0 90 -
07:29 12,6 10,8 16,7 WNW 10,0 1009,0 89 -
07:34 12,8 11,0 14,8 West 11,1 1009,0 89 -
07:39 12,9 11,1 18,5 West 10,5 1009,0 89 -
07:44 13,1 11,2 16,7 WSW 11,9 1008,7 88 -
07:49 13,3 11,3 19,3 West 14,6 1008,7 88 -
07:54 13,4 11,3 18,5 West 14,2 1009,0 87 -
07:59 13,6 11,3 18,5 WSW 16,9 1009,0 86 -
08:04 13,8 11,7 22,2 West 13,2 1009,0 87 -
08:09 14,0 11,5 18,5 West 13,0 1009,0 85 -
08:14 14,3 11,8 16,7 West 13,0 1009,0 85 -
08:19 14,6 11,8 18,5 West 12,9 1009,0 83 -
08:24 14,8 11,7 18,5 West 15,8 1009,0 82 -
08:29 14,9 12,1 13,0 WSW 11,1 1009,0 83 -
08:34 15,2 11,9 20,4 West 15,6 1009,0 81 -
08:39 15,5 12,1 16,1 West 14,2 1009,0 80 -
08:44 15,6 12,0 22,2 West 17,1 1009,0 79 -
08:49 15,8 12,2 18,5 West 16,1 1009,0 79 -
08:54 16,1 12,6 22,5 West 17,1 1009,0 80 -
08:59 16,2 12,4 20,4 WSW 15,0 1009,4 78 -
09:04 16,6 12,5 20,9 WSW 17,1 1009,4 77 -
09:09 16,7 12,8 16,7 West 13,2 1009,4 78 -
09:14 16,9 12,7 18,5 West 13,7 1009,4 76 -
09:19 17,1 12,6 18,5 West 17,1 1009,4 75 -
09:24 17,4 12,9 19,3 West 17,5 1009,4 75 -
09:29 17,5 12,6 24,1 West 16,3 1009,4 73 -
09:34 17,7 13,0 20,4 West 11,1 1009,4 74 -
09:39 18,2 13,1 24,1 WSW 17,4 1009,4 72 -
09:44 18,3 12,9 25,9 West 20,6 1009,4 71 -
09:49 18,5 13,2 20,4 WSW 15,3 1009,4 71 -
09:54 18,6 13,2 19,3 West 16,1 1009,4 71 -
09:59 18,8 13,4 18,5 West 16,6 1009,4 71 -
10:04 19,2 13,8 18,5 West 11,4 1009,4 71 -
10:09 19,3 13,3 25,9 West 21,9 1009,4 68 -
10:14 19,6 13,1 27,8 West 21,4 1009,4 66 -
10:19 19,8 14,2 18,5 West 13,4 1009,4 70 -
10:24 20,1 13,9 25,9 West 18,3 1009,4 68 -
10:29 20,1 13,3 27,8 WSW 21,4 1009,4 65 -
10:34 20,2 13,2 27,8 WSW 21,1 1009,4 64 -
10:39 20,4 13,4 25,9 WSW 19,5 1009,4 64 -
10:44 20,6 13,8 20,4 WNW 15,6 1009,4 65 -
10:49 20,7 13,2 18,5 West 15,3 1009,4 62 -
10:54 20,9 12,9 25,9 WSW 18,5 1009,4 60 -
10:59 21,0 12,4 29,6 West 20,0 1009,4 58 -
11:04 21,0 12,4 24,1 West 19,3 1009,4 58 -
11:09 21,1 12,3 27,8 West 20,9 1009,0 57 -
11:14 21,3 11,9 18,5 WSW 15,4 1009,4 55 -
11:19 21,4 12,3 24,1 West 14,6 1009,4 56 -
11:24 21,5 12,1 18,5 West 12,6 1009,0 55 -
11:29 21,9 12,2 20,9 West 20,1 1009,4 54 -
11:34 21,9 11,3 33,3 SW 21,2 1009,0 51 -
11:39 22,1 11,5 27,8 West 20,9 1009,0 51 -
11:44 22,2 11,2 29,6 WSW 15,9 1009,0 50 -
11:49 22,3 11,7 22,2 SW 16,3 1009,0 51 -
11:54 22,5 11,6 27,4 WSW 12,7 1009,0 50 -
11:59 22,6 11,7 29,0 WSW 17,9 1009,0 50 -
12:04 22,8 10,9 27,4 WSW 18,2 1009,0 47 -
12:09 22,8 11,9 22,2 West 14,0 1009,0 50 -
12:14 22,7 11,1 29,6 WSW 18,2 1009,0 48 -
12:19 22,9 11,6 25,7 SW 14,0 1009,0 49 -
12:24 23,2 11,6 29,0 West 21,1 1009,0 48 -
12:29 23,1 10,8 29,6 West 22,9 1009,0 46 -
12:34 23,1 11,1 29,6 SW 22,7 1009,0 47 -
12:39 23,1 10,5 29,6 SW 22,7 1009,0 45 -
12:44 22,9 11,3 20,4 WSW 12,9 1009,0 48 -
12:49 23,2 10,9 27,8 West 18,3 1009,0 46 -
12:54 23,3 11,1 29,6 WSW 19,8 1009,0 46 -
12:59 23,2 11,3 22,5 WSW 17,4 1008,7 47 -
13:04 23,4 11,8 25,9 SW 18,3 1008,7 48 -
13:09 23,3 12,0 22,2 SW 12,2 1008,7 49 -
13:14 23,8 12,1 18,5 SW 15,9 1008,7 48 -
13:19 23,6 11,9 25,9 SW 15,6 1008,7 48 -
13:24 23,8 10,8 25,7 West 22,0 1008,7 44 -
13:29 24,1 11,4 27,4 WSW 19,3 1008,7 45 -
13:34 24,2 11,5 17,7 WSW 14,3 1008,7 45 -
13:39 24,2 10,1 19,3 West 18,5 1008,4 41 -
13:44 24,3 11,3 14,8 WSW 12,6 1008,4 44 -
13:49 24,5 10,7 20,4 WSW 14,6 1008,4 42 -
13:54 24,4 10,7 25,9 SSW 20,4 1008,4 42 -
13:59 24,3 10,2 27,4 WSW 24,1 1008,4 41 -
14:04 24,5 10,0 20,4 SW 17,5 1008,0 40 -
14:09 24,7 10,2 25,9 WSW 23,5 1008,0 40 -
14:14 24,7 10,9 22,2 WSW 14,2 1008,0 42 -
14:19 24,7 9,1 25,9 WSW 18,7 1008,0 37 -
14:24 24,9 10,1 16,7 SW 16,1 1008,0 39 -
14:29 25,2 11,7 16,7 SW 6,9 1008,0 43 -
14:34 25,1 10,6 18,5 South 12,4 1008,0 40 -
14:39 25,1 9,7 18,5 SW 15,1 1008,0 38 -
14:44 25,4 10,1 18,5 WSW 11,6 1008,0 38 -
14:49 25,4 9,7 22,2 SSW 15,1 1008,0 37 -
14:54 25,5 10,5 22,2 SSW 19,5 1008,0 39 -
14:59 25,7 11,1 14,8 West 9,0 1008,0 40 -
15:04 26,0 9,3 14,8 SW 12,6 1008,0 35 -
15:09 25,9 10,6 24,1 SW 17,9 1007,7 38 -
15:14 25,6 10,6 18,5 SSW 15,0 1007,7 39 -
15:19 25,7 9,9 25,9 SSW 17,5 1007,7 37 -
15:24 25,7 9,5 24,1 SW 20,8 1007,7 36 -
15:29 25,7 10,7 31,5 South 17,5 1008,0 39 -
15:34 25,7 10,7 22,2 WSW 13,8 1007,7 39 -
15:39 25,8 10,0 31,5 SSW 24,3 1007,7 37 -
15:44 25,7 9,9 27,4 SSW 21,4 1007,7 37 -
15:49 25,7 9,9 20,4 SW 15,8 1007,7 37 -
15:54 25,9 9,7 18,5 WSW 12,6 1007,7 36 -
15:59 25,9 10,1 29,6 SW 19,5 1007,7 37 -
16:04 26,1 11,0 16,7 SW 14,5 1007,7 39 -
16:09 26,2 11,1 25,9 SSW 22,4 1007,7 39 -
16:14 26,2 9,5 18,5 SSW 11,4 1007,3 35 -
16:19 26,3 10,0 25,9 SW 20,1 1007,3 36 -
16:24 26,3 10,9 22,2 SSW 18,0 1007,3 38 -
16:29 26,4 9,7 18,5 SW 15,0 1007,3 35 -
16:34 26,4 9,7 25,9 SSW 18,7 1007,3 35 -
16:39 26,4 10,2 22,2 SSW 14,6 1007,3 36 -
16:44 26,7 11,2 27,8 SW 15,4 1007,3 38 -
16:49 26,7 10,3 20,4 SW 16,4 1007,3 36 -
16:54 26,7 10,3 25,9 SSW 20,8 1007,0 36 -
16:59 26,8 10,4 24,1 SSW 17,4 1007,0 36 -

Download your copy of this data-set  here

Our weather-data as stored at Weather Underground. Script developed by Jim McMurry. Adapted for the template by Leuven-Template.eu